VOZ1693 YBBN-YAYE
Flight info
| Callsign | VOZ1693 |
|---|---|
| Flight time | 3h 28m |
| Altitude | 38000 |
| Route | N0455F380 DCT WACKO V250 LEBIT V412 ROM T11 PULOL Q36 ANGAS V656 AYE DCT |
| Aircraft | B737/M-SDE2E3FGHIRWXY/LB1 |
Departure
| Time | 2026-05-03 21:58 |
|---|---|
| Airport | Brisbane International Airport (YBBN) |
Arrival
| Time | 2026-05-04 01:26 |
|---|---|
| Airport | Ayers Rock Connellan Airport (YAYE) |
| Time | Latitude | Longitude | Altitude | Speed | Heading |
|---|---|---|---|---|---|
| 2026-05-03 21:35 | -27.38807 | 153.12003 | 22 ft | 0 kts | 279° |
| 2026-05-03 21:48 | -27.38809 | 153.12015 | -6 ft | 3 kts | 279° |
| 2026-05-03 21:48 | -27.38812 | 153.12038 | 5 ft | 3 kts | 279° |
| 2026-05-03 21:48 | -27.38812 | 153.12057 | 24 ft | 3 kts | 272° |
| 2026-05-03 21:48 | -27.38816 | 153.12076 | 22 ft | 3 kts | 295° |
| 2026-05-03 21:49 | -27.38825 | 153.12090 | 21 ft | 2 kts | 331° |
| 2026-05-03 21:49 | -27.38836 | 153.12096 | 25 ft | 3 kts | 337° |
| 2026-05-03 21:49 | -27.38852 | 153.12101 | 23 ft | 3 kts | 24° |
| 2026-05-03 21:49 | -27.38863 | 153.12092 | 23 ft | 3 kts | 43° |
| 2026-05-03 21:50 | -27.38872 | 153.12082 | 22 ft | 0 kts | 43° |
| 2026-05-03 21:50 | -27.38873 | 153.12082 | 22 ft | 0 kts | 43° |
| 2026-05-03 21:52 | -27.38871 | 153.12087 | 22 ft | 2 kts | 70° |
| 2026-05-03 21:53 | -27.38871 | 153.12117 | 21 ft | 5 kts | 89° |
| 2026-05-03 21:53 | -27.38879 | 153.12162 | 20 ft | 7 kts | 115° |
| 2026-05-03 21:53 | -27.38892 | 153.12195 | 22 ft | 1 kts | 114° |
| 2026-05-03 21:53 | -27.38896 | 153.12218 | 20 ft | 6 kts | 88° |
| 2026-05-03 21:54 | -27.38853 | 153.12271 | 20 ft | 12 kts | 32° |
| 2026-05-03 21:54 | -27.38765 | 153.12321 | 20 ft | 16 kts | 27° |
| 2026-05-03 21:54 | -27.38659 | 153.12382 | 21 ft | 18 kts | 28° |
| 2026-05-03 21:54 | -27.38548 | 153.12446 | 23 ft | 18 kts | 27° |
| 2026-05-03 21:55 | -27.38441 | 153.12508 | 20 ft | 17 kts | 27° |
| 2026-05-03 21:55 | -27.38338 | 153.12567 | 21 ft | 17 kts | 26° |
| 2026-05-03 21:55 | -27.38222 | 153.12633 | 20 ft | 20 kts | 27° |
| 2026-05-03 21:55 | -27.38093 | 153.12707 | 20 ft | 21 kts | 27° |
| 2026-05-03 21:56 | -27.37988 | 153.12804 | 23 ft | 19 kts | 79° |
| 2026-05-03 21:56 | -27.38043 | 153.12930 | 20 ft | 18 kts | 117° |
| 2026-05-03 21:56 | -27.38088 | 153.13028 | 20 ft | 13 kts | 117° |
| 2026-05-03 21:56 | -27.38126 | 153.13054 | 21 ft | 4 kts | 205° |
| 2026-05-03 21:57 | -27.38133 | 153.13050 | 21 ft | 3 kts | 204° |
| 2026-05-03 21:57 | -27.38322 | 153.12943 | 22 ft | 65 kts | 207° |
| 2026-05-03 21:57 | -27.38923 | 153.12599 | 20 ft | 126 kts | 207° |
| 2026-05-03 21:57 | -27.39845 | 153.12073 | 142 ft | 161 kts | 207° |
| 2026-05-03 21:58 | -27.40838 | 153.11500 | 713 ft | 166 kts | 207° |
| 2026-05-03 21:58 | -27.41905 | 153.10891 | 1256 ft | 176 kts | 205° |
| 2026-05-03 21:58 | -27.43072 | 153.10235 | 1644 ft | 201 kts | 205° |
| 2026-05-03 21:58 | -27.44426 | 153.09452 | 1883 ft | 230 kts | 205° |
| 2026-05-03 21:59 | -27.45913 | 153.08588 | 2368 ft | 247 kts | 205° |
| 2026-05-03 21:59 | -27.47438 | 153.07660 | 3058 ft | 257 kts | 213° |
| 2026-05-03 21:59 | -27.48606 | 153.06119 | 3824 ft | 265 kts | 245° |
| 2026-05-03 21:59 | -27.48985 | 153.04088 | 4603 ft | 269 kts | 271° |
| 2026-05-03 22:00 | -27.48841 | 153.01968 | 5376 ft | 274 kts | 278° |
| 2026-05-03 22:00 | -27.48600 | 152.99840 | 6234 ft | 274 kts | 278° |
| 2026-05-03 22:00 | -27.48365 | 152.97700 | 7098 ft | 276 kts | 278° |
| 2026-05-03 22:00 | -27.48144 | 152.95554 | 8025 ft | 275 kts | 277° |
| 2026-05-03 22:01 | -27.47876 | 152.93409 | 8883 ft | 280 kts | 287° |
| 2026-05-03 22:01 | -27.46878 | 152.91521 | 9584 ft | 287 kts | 316° |
| 2026-05-03 22:01 | -27.45235 | 152.90226 | 10370 ft | 294 kts | 330° |
| 2026-05-03 22:01 | -27.43337 | 152.89130 | 10626 ft | 321 kts | 333° |
| 2026-05-03 22:02 | -27.41241 | 152.88000 | 10816 ft | 346 kts | 334° |
| 2026-05-03 22:02 | -27.39046 | 152.86819 | 11256 ft | 360 kts | 333° |
| 2026-05-03 22:02 | -27.36779 | 152.85584 | 11990 ft | 363 kts | 333° |
| 2026-05-03 22:02 | -27.34505 | 152.84329 | 12827 ft | 364 kts | 332° |
| 2026-05-03 22:03 | -27.32224 | 152.83059 | 13626 ft | 367 kts | 332° |
| 2026-05-03 22:03 | -27.29930 | 152.81774 | 14342 ft | 370 kts | 332° |
| 2026-05-03 22:03 | -27.27614 | 152.80478 | 15013 ft | 372 kts | 332° |
| 2026-05-03 22:03 | -27.25284 | 152.79173 | 15664 ft | 376 kts | 332° |
| 2026-05-03 22:04 | -27.22942 | 152.77836 | 16332 ft | 379 kts | 330° |
| 2026-05-03 22:04 | -27.21398 | 152.76912 | 16773 ft | 380 kts | 330° |
| 2026-05-03 22:04 | -27.19218 | 152.75234 | 17406 ft | 381 kts | 315° |
| 2026-05-03 22:04 | -27.17575 | 152.72900 | 18048 ft | 383 kts | 300° |
| 2026-05-03 22:05 | -27.16309 | 152.70266 | 18666 ft | 385 kts | 297° |
| 2026-05-03 22:05 | -27.15086 | 152.67578 | 19224 ft | 387 kts | 297° |
| 2026-05-03 22:05 | -27.13866 | 152.64883 | 19830 ft | 387 kts | 297° |
| 2026-05-03 22:05 | -27.12634 | 152.62191 | 20442 ft | 388 kts | 297° |
| 2026-05-03 22:06 | -27.11385 | 152.59495 | 20993 ft | 390 kts | 297° |
| 2026-05-03 22:06 | -27.10124 | 152.56797 | 21574 ft | 391 kts | 297° |
| 2026-05-03 22:06 | -27.08856 | 152.54096 | 22098 ft | 393 kts | 297° |
| 2026-05-03 22:06 | -27.07580 | 152.51384 | 22670 ft | 393 kts | 297° |
| 2026-05-03 22:07 | -27.06322 | 152.48712 | 23293 ft | 392 kts | 297° |
| 2026-05-03 22:07 | -27.05045 | 152.46003 | 23797 ft | 394 kts | 297° |
| 2026-05-03 22:07 | -27.03758 | 152.43276 | 24189 ft | 396 kts | 297° |
| 2026-05-03 22:07 | -27.02464 | 152.40540 | 24562 ft | 399 kts | 297° |
| 2026-05-03 22:08 | -27.01161 | 152.37786 | 24957 ft | 400 kts | 297° |
| 2026-05-03 22:08 | -26.99853 | 152.35023 | 25357 ft | 401 kts | 297° |
| 2026-05-03 22:08 | -26.98541 | 152.32252 | 25743 ft | 403 kts | 297° |
| 2026-05-03 22:08 | -26.97224 | 152.29472 | 26120 ft | 404 kts | 297° |
| 2026-05-03 22:09 | -26.95903 | 152.26684 | 26480 ft | 406 kts | 297° |
| 2026-05-03 22:09 | -26.94574 | 152.23882 | 26811 ft | 408 kts | 297° |
| 2026-05-03 22:09 | -26.93240 | 152.21070 | 27172 ft | 409 kts | 297° |
| 2026-05-03 22:10 | -26.90556 | 152.15418 | 27826 ft | 413 kts | 297° |
| 2026-05-03 22:10 | -26.89202 | 152.12572 | 28156 ft | 414 kts | 297° |
| 2026-05-03 22:10 | -26.87847 | 152.09724 | 28462 ft | 415 kts | 297° |
| 2026-05-03 22:10 | -26.86485 | 152.06862 | 28764 ft | 417 kts | 297° |
| 2026-05-03 22:11 | -26.85118 | 152.03991 | 29017 ft | 419 kts | 297° |
| 2026-05-03 22:11 | -26.83744 | 152.01109 | 29284 ft | 421 kts | 297° |
| 2026-05-03 22:11 | -26.82384 | 151.98252 | 29547 ft | 422 kts | 296° |
| 2026-05-03 22:11 | -26.81240 | 151.95228 | 29895 ft | 421 kts | 289° |
| 2026-05-03 22:12 | -26.80430 | 151.92097 | 30345 ft | 418 kts | 284° |
| 2026-05-03 22:12 | -26.79961 | 151.88895 | 30754 ft | 417 kts | 277° |
| 2026-05-03 22:12 | -26.79729 | 151.85674 | 31177 ft | 414 kts | 276° |
| 2026-05-03 22:12 | -26.79513 | 151.82471 | 31594 ft | 412 kts | 276° |
| 2026-05-03 22:13 | -26.79299 | 151.79285 | 32039 ft | 409 kts | 276° |
| 2026-05-03 22:13 | -26.79084 | 151.76125 | 32497 ft | 406 kts | 276° |
| 2026-05-03 22:13 | -26.78864 | 151.72985 | 32970 ft | 403 kts | 276° |
| 2026-05-03 22:13 | -26.78642 | 151.69873 | 33510 ft | 398 kts | 275° |
| 2026-05-03 22:14 | -26.78421 | 151.66806 | 34114 ft | 392 kts | 275° |
| 2026-05-03 22:14 | -26.78200 | 151.63776 | 34518 ft | 389 kts | 275° |
| 2026-05-03 22:14 | -26.77978 | 151.60760 | 34796 ft | 389 kts | 275° |
| 2026-05-03 22:14 | -26.77755 | 151.57747 | 35079 ft | 388 kts | 276° |
| 2026-05-03 22:15 | -26.77532 | 151.54740 | 35413 ft | 386 kts | 275° |
| 2026-05-03 22:15 | -26.77313 | 151.51793 | 35729 ft | 384 kts | 276° |
| 2026-05-03 22:15 | -26.77091 | 151.48819 | 36047 ft | 382 kts | 276° |
| 2026-05-03 22:15 | -26.76870 | 151.45859 | 36372 ft | 380 kts | 276° |
| 2026-05-03 22:16 | -26.76650 | 151.42917 | 36676 ft | 379 kts | 276° |
| 2026-05-03 22:16 | -26.76429 | 151.39977 | 36959 ft | 378 kts | 276° |
| 2026-05-03 22:16 | -26.76208 | 151.37046 | 37249 ft | 376 kts | 276° |
| 2026-05-03 22:16 | -26.75988 | 151.34135 | 37537 ft | 375 kts | 276° |
| 2026-05-03 22:17 | -26.75768 | 151.31228 | 37788 ft | 374 kts | 276° |
| 2026-05-03 22:17 | -26.75548 | 151.28334 | 38049 ft | 373 kts | 276° |
| 2026-05-03 22:17 | -26.75328 | 151.25440 | 38186 ft | 374 kts | 276° |
| 2026-05-03 22:18 | -26.74882 | 151.19613 | 38174 ft | 375 kts | 276° |
| 2026-05-03 22:18 | -26.74440 | 151.13866 | 38174 ft | 371 kts | 276° |
| 2026-05-03 22:19 | -26.73998 | 151.08141 | 38180 ft | 368 kts | 276° |
| 2026-05-03 22:19 | -26.73556 | 151.02451 | 38179 ft | 366 kts | 276° |
| 2026-05-03 22:20 | -26.73112 | 150.96770 | 38185 ft | 366 kts | 276° |
| 2026-05-03 22:20 | -26.72665 | 150.91082 | 38185 ft | 368 kts | 276° |
| 2026-05-03 22:21 | -26.72214 | 150.85370 | 38186 ft | 370 kts | 276° |
| 2026-05-03 22:21 | -26.71758 | 150.79618 | 38186 ft | 372 kts | 276° |
| 2026-05-03 22:22 | -26.71297 | 150.73832 | 38191 ft | 374 kts | 276° |
| 2026-05-03 22:22 | -26.70834 | 150.68059 | 38185 ft | 376 kts | 276° |
| 2026-05-03 22:23 | -26.70365 | 150.62231 | 38183 ft | 376 kts | 276° |
| 2026-05-03 22:23 | -26.69893 | 150.56399 | 38183 ft | 376 kts | 276° |
| 2026-05-03 22:24 | -26.69419 | 150.50578 | 38175 ft | 376 kts | 276° |
| 2026-05-03 22:24 | -26.68943 | 150.44751 | 38187 ft | 375 kts | 276° |
| 2026-05-03 22:25 | -26.68469 | 150.38989 | 38176 ft | 374 kts | 276° |
| 2026-05-03 22:25 | -26.67992 | 150.33205 | 38177 ft | 373 kts | 276° |
| 2026-05-03 22:26 | -26.67514 | 150.27448 | 38181 ft | 372 kts | 277° |
| 2026-05-03 22:26 | -26.67034 | 150.21698 | 38182 ft | 371 kts | 277° |
| 2026-05-03 22:27 | -26.66553 | 150.15958 | 38170 ft | 370 kts | 277° |
| 2026-05-03 22:27 | -26.66070 | 150.10232 | 38174 ft | 370 kts | 277° |
| 2026-05-03 22:28 | -26.65588 | 150.04542 | 38174 ft | 370 kts | 277° |
| 2026-05-03 22:28 | -26.65102 | 149.98823 | 38175 ft | 370 kts | 277° |
| 2026-05-03 22:29 | -26.64612 | 149.93096 | 38174 ft | 370 kts | 277° |
| 2026-05-03 22:29 | -26.64120 | 149.87361 | 38185 ft | 371 kts | 277° |
| 2026-05-03 22:30 | -26.63623 | 149.81603 | 38178 ft | 372 kts | 277° |
| 2026-05-03 22:30 | -26.63121 | 149.75819 | 38171 ft | 374 kts | 277° |
| 2026-05-03 22:31 | -26.62619 | 149.70062 | 38170 ft | 375 kts | 277° |
| 2026-05-03 22:31 | -26.62111 | 149.64253 | 38171 ft | 376 kts | 277° |
| 2026-05-03 22:32 | -26.61599 | 149.58431 | 38164 ft | 377 kts | 277° |
| 2026-05-03 22:32 | -26.61084 | 149.52600 | 38169 ft | 377 kts | 277° |
| 2026-05-03 22:33 | -26.60566 | 149.46764 | 38171 ft | 377 kts | 277° |
| 2026-05-03 22:33 | -26.60049 | 149.40969 | 38170 ft | 377 kts | 278° |
| 2026-05-03 22:34 | -26.59527 | 149.35138 | 38163 ft | 377 kts | 278° |
| 2026-05-03 22:34 | -26.59003 | 149.29311 | 38163 ft | 376 kts | 278° |
| 2026-05-03 22:35 | -26.58477 | 149.23498 | 38166 ft | 376 kts | 278° |
| 2026-05-03 22:35 | -26.57950 | 149.17694 | 38166 ft | 375 kts | 278° |
| 2026-05-03 22:36 | -26.57424 | 149.11933 | 38166 ft | 375 kts | 278° |
| 2026-05-03 22:36 | -26.56893 | 149.06140 | 38165 ft | 375 kts | 278° |
| 2026-05-03 22:37 | -26.56360 | 149.00346 | 38155 ft | 374 kts | 278° |
| 2026-05-03 22:37 | -26.55825 | 148.94557 | 38159 ft | 374 kts | 278° |
| 2026-05-03 22:38 | -26.55287 | 148.88771 | 38162 ft | 374 kts | 278° |
| 2026-05-03 22:38 | -26.54751 | 148.83022 | 38164 ft | 374 kts | 278° |
| 2026-05-03 22:39 | -26.54203 | 148.77237 | 38156 ft | 374 kts | 279° |
| 2026-05-03 22:39 | -26.53484 | 148.71473 | 38164 ft | 374 kts | 281° |
| 2026-05-03 22:40 | -26.52705 | 148.65722 | 38162 ft | 374 kts | 281° |
| 2026-05-03 22:40 | -26.51934 | 148.59967 | 38156 ft | 374 kts | 280° |
| 2026-05-03 22:41 | -26.51177 | 148.54251 | 38151 ft | 374 kts | 280° |
| 2026-05-03 22:41 | -26.50418 | 148.48494 | 38155 ft | 374 kts | 280° |
| 2026-05-03 22:42 | -26.49659 | 148.42746 | 38155 ft | 374 kts | 281° |
| 2026-05-03 22:42 | -26.48898 | 148.36997 | 38153 ft | 374 kts | 281° |
| 2026-05-03 22:43 | -26.48137 | 148.31259 | 38151 ft | 374 kts | 281° |
| 2026-05-03 22:43 | -26.47373 | 148.25523 | 38149 ft | 373 kts | 281° |
| 2026-05-03 22:44 | -26.46612 | 148.19828 | 38154 ft | 373 kts | 281° |
| 2026-05-03 22:44 | -26.45845 | 148.14100 | 38140 ft | 373 kts | 281° |
| 2026-05-03 22:45 | -26.45076 | 148.08377 | 38149 ft | 373 kts | 281° |
| 2026-05-03 22:45 | -26.44306 | 148.02666 | 38137 ft | 372 kts | 281° |
| 2026-05-03 22:46 | -26.43534 | 147.96957 | 38151 ft | 372 kts | 281° |
| 2026-05-03 22:46 | -26.42760 | 147.91250 | 38163 ft | 372 kts | 281° |
| 2026-05-03 22:47 | -26.41988 | 147.85576 | 38145 ft | 372 kts | 281° |
| 2026-05-03 22:47 | -26.41340 | 147.80828 | 38141 ft | 372 kts | 281° |
| 2026-05-03 22:48 | -26.40427 | 147.74160 | 38145 ft | 372 kts | 281° |
| 2026-05-03 22:48 | -26.39645 | 147.68461 | 38144 ft | 371 kts | 281° |
| 2026-05-03 22:49 | -26.38861 | 147.62767 | 38142 ft | 371 kts | 281° |
| 2026-05-03 22:49 | -26.38074 | 147.57072 | 38148 ft | 371 kts | 281° |
| 2026-05-03 22:50 | -26.37291 | 147.51419 | 38144 ft | 371 kts | 281° |
| 2026-05-03 22:50 | -26.36496 | 147.45700 | 38144 ft | 371 kts | 281° |
| 2026-05-03 22:51 | -26.35709 | 147.40054 | 38143 ft | 371 kts | 281° |
| 2026-05-03 22:51 | -26.34914 | 147.34367 | 38144 ft | 371 kts | 281° |
| 2026-05-03 22:52 | -26.34117 | 147.28682 | 38154 ft | 371 kts | 281° |
| 2026-05-03 22:52 | -26.33317 | 147.22994 | 38143 ft | 371 kts | 281° |
| 2026-05-03 22:53 | -26.32514 | 147.17296 | 38147 ft | 371 kts | 281° |
| 2026-05-03 22:53 | -26.31710 | 147.11611 | 38147 ft | 371 kts | 281° |
| 2026-05-03 22:54 | -26.31038 | 147.06874 | 38153 ft | 372 kts | 281° |
| 2026-05-03 22:54 | -26.30228 | 147.01178 | 38148 ft | 372 kts | 281° |
| 2026-05-03 22:55 | -26.29416 | 146.95484 | 38150 ft | 372 kts | 281° |
| 2026-05-03 22:55 | -26.28605 | 146.89817 | 38149 ft | 372 kts | 281° |
| 2026-05-03 22:56 | -26.27788 | 146.84122 | 38146 ft | 372 kts | 282° |
| 2026-05-03 22:56 | -26.26969 | 146.78427 | 38147 ft | 372 kts | 282° |
| 2026-05-03 22:57 | -26.26148 | 146.72736 | 38149 ft | 372 kts | 282° |
| 2026-05-03 22:57 | -26.25325 | 146.67048 | 38151 ft | 372 kts | 282° |
| 2026-05-03 22:58 | -26.24506 | 146.61400 | 38148 ft | 372 kts | 282° |
| 2026-05-03 22:58 | -26.23675 | 146.55693 | 38152 ft | 372 kts | 282° |
| 2026-05-03 22:59 | -26.22844 | 146.50000 | 38151 ft | 372 kts | 282° |
| 2026-05-03 22:59 | -26.22016 | 146.44339 | 38149 ft | 372 kts | 282° |
| 2026-05-03 23:00 | -26.21180 | 146.38642 | 38150 ft | 372 kts | 282° |
| 2026-05-03 23:00 | -26.20343 | 146.32953 | 38151 ft | 372 kts | 282° |
| 2026-05-03 23:01 | -26.19504 | 146.27268 | 38150 ft | 372 kts | 282° |
| 2026-05-03 23:01 | -26.18662 | 146.21582 | 38148 ft | 372 kts | 282° |
| 2026-05-03 23:02 | -26.17819 | 146.15902 | 38152 ft | 372 kts | 282° |
| 2026-05-03 23:02 | -26.16973 | 146.10219 | 38145 ft | 372 kts | 282° |
| 2026-05-03 23:03 | -26.16131 | 146.04576 | 38157 ft | 372 kts | 282° |
| 2026-05-03 23:03 | -26.15281 | 145.98896 | 38145 ft | 372 kts | 282° |
| 2026-05-03 23:04 | -26.14428 | 145.93208 | 38144 ft | 372 kts | 282° |
| 2026-05-03 23:04 | -26.13573 | 145.87527 | 38145 ft | 372 kts | 282° |
| 2026-05-03 23:05 | -26.12715 | 145.81843 | 38145 ft | 372 kts | 282° |
| 2026-05-03 23:05 | -26.11862 | 145.76206 | 38150 ft | 371 kts | 282° |
| 2026-05-03 23:06 | -26.11002 | 145.70537 | 38142 ft | 371 kts | 282° |
| 2026-05-03 23:06 | -26.10140 | 145.64869 | 38142 ft | 371 kts | 282° |
| 2026-05-03 23:07 | -26.09276 | 145.59208 | 38139 ft | 371 kts | 282° |
| 2026-05-03 23:07 | -26.08417 | 145.53589 | 38142 ft | 371 kts | 282° |
| 2026-05-03 23:08 | -26.07541 | 145.47881 | 38145 ft | 371 kts | 282° |
| 2026-05-03 23:08 | -26.06677 | 145.42260 | 38145 ft | 371 kts | 282° |
| 2026-05-03 23:09 | -26.05804 | 145.36600 | 38144 ft | 371 kts | 282° |
| 2026-05-03 23:09 | -26.04928 | 145.30935 | 38134 ft | 371 kts | 282° |
| 2026-05-03 23:10 | -26.04050 | 145.25272 | 38139 ft | 371 kts | 283° |
| 2026-05-03 23:10 | -26.03171 | 145.19612 | 38136 ft | 371 kts | 283° |
| 2026-05-03 23:11 | -26.02295 | 145.13990 | 38142 ft | 371 kts | 283° |
| 2026-05-03 23:11 | -26.01412 | 145.08339 | 38135 ft | 371 kts | 283° |
| 2026-05-03 23:12 | -26.00524 | 145.02675 | 38138 ft | 371 kts | 283° |
| 2026-05-03 23:12 | -25.99636 | 144.97020 | 38142 ft | 371 kts | 283° |
| 2026-05-03 23:13 | -25.98746 | 144.91366 | 38141 ft | 371 kts | 283° |
| 2026-05-03 23:13 | -25.97852 | 144.85707 | 38140 ft | 372 kts | 283° |
| 2026-05-03 23:14 | -25.96956 | 144.80048 | 38134 ft | 372 kts | 283° |
| 2026-05-03 23:14 | -25.96057 | 144.74386 | 38139 ft | 372 kts | 283° |
| 2026-05-03 23:15 | -25.95162 | 144.68760 | 38142 ft | 372 kts | 283° |
| 2026-05-03 23:15 | -25.94258 | 144.63094 | 38137 ft | 372 kts | 283° |
| 2026-05-03 23:16 | -25.93353 | 144.57434 | 38138 ft | 372 kts | 283° |
| 2026-05-03 23:16 | -25.92443 | 144.51761 | 38137 ft | 372 kts | 283° |
| 2026-05-03 23:17 | -25.91533 | 144.46102 | 38131 ft | 372 kts | 283° |
| 2026-05-03 23:17 | -25.90622 | 144.40442 | 38136 ft | 372 kts | 283° |
| 2026-05-03 23:18 | -25.89707 | 144.34780 | 38138 ft | 372 kts | 283° |
| 2026-05-03 23:18 | -25.88793 | 144.29152 | 38140 ft | 372 kts | 283° |
| 2026-05-03 23:19 | -25.87870 | 144.23503 | 38154 ft | 372 kts | 283° |
| 2026-05-03 23:19 | -25.86944 | 144.17843 | 38143 ft | 372 kts | 283° |
| 2026-05-03 23:20 | -25.86016 | 144.12180 | 38144 ft | 372 kts | 283° |
| 2026-05-03 23:20 | -25.85087 | 144.06522 | 38142 ft | 372 kts | 283° |
| 2026-05-03 23:21 | -25.84155 | 144.00865 | 38144 ft | 372 kts | 283° |
| 2026-05-03 23:21 | -25.83223 | 143.95219 | 38144 ft | 372 kts | 283° |
| 2026-05-03 23:22 | -25.81826 | 143.86781 | 38141 ft | 372 kts | 283° |
| 2026-05-03 23:22 | -25.80888 | 143.81136 | 38142 ft | 371 kts | 283° |
| 2026-05-03 23:23 | -25.79949 | 143.75499 | 38145 ft | 371 kts | 283° |
| 2026-05-03 23:23 | -25.79008 | 143.69862 | 38140 ft | 371 kts | 283° |
| 2026-05-03 23:24 | -25.78066 | 143.64231 | 38144 ft | 371 kts | 283° |
| 2026-05-03 23:24 | -25.77122 | 143.58605 | 38157 ft | 371 kts | 284° |
| 2026-05-03 23:25 | -25.76177 | 143.52984 | 38150 ft | 370 kts | 284° |
| 2026-05-03 23:25 | -25.75231 | 143.47372 | 38158 ft | 370 kts | 284° |
| 2026-05-03 23:26 | -25.74291 | 143.41808 | 38135 ft | 369 kts | 284° |
| 2026-05-03 23:26 | -25.73344 | 143.36221 | 38147 ft | 368 kts | 284° |
| 2026-05-03 23:27 | -25.72398 | 143.30651 | 38143 ft | 367 kts | 284° |
| 2026-05-03 23:27 | -25.71453 | 143.25095 | 38143 ft | 366 kts | 284° |
| 2026-05-03 23:28 | -25.70506 | 143.19547 | 38147 ft | 366 kts | 284° |
| 2026-05-03 23:28 | -25.69564 | 143.14043 | 38156 ft | 365 kts | 284° |
| 2026-05-03 23:29 | -25.68616 | 143.08510 | 38142 ft | 365 kts | 284° |
| 2026-05-03 23:29 | -25.67664 | 143.02969 | 38154 ft | 365 kts | 284° |
| 2026-05-03 23:30 | -25.66710 | 142.97431 | 38150 ft | 365 kts | 284° |
| 2026-05-03 23:30 | -25.65754 | 142.91893 | 38161 ft | 365 kts | 284° |
| 2026-05-03 23:31 | -25.64803 | 142.86397 | 38149 ft | 366 kts | 284° |
| 2026-05-03 23:31 | -25.63841 | 142.80854 | 38161 ft | 366 kts | 284° |
| 2026-05-03 23:32 | -25.62879 | 142.75319 | 38168 ft | 366 kts | 284° |
| 2026-05-03 23:32 | -25.61914 | 142.69781 | 38163 ft | 366 kts | 284° |
| 2026-05-03 23:33 | -25.60947 | 142.64245 | 38165 ft | 366 kts | 284° |
| 2026-05-03 23:33 | -25.59978 | 142.58711 | 38163 ft | 365 kts | 284° |
| 2026-05-03 23:34 | -25.59008 | 142.53182 | 38167 ft | 365 kts | 284° |
| 2026-05-03 23:34 | -25.58037 | 142.47661 | 38167 ft | 365 kts | 284° |
| 2026-05-03 23:35 | -25.57071 | 142.42181 | 38171 ft | 365 kts | 284° |
| 2026-05-03 23:35 | -25.56097 | 142.36668 | 38174 ft | 365 kts | 284° |
| 2026-05-03 23:36 | -25.55120 | 142.31151 | 38174 ft | 365 kts | 284° |
| 2026-05-03 23:36 | -25.54141 | 142.25634 | 38174 ft | 365 kts | 284° |
| 2026-05-03 23:37 | -25.53160 | 142.20122 | 38179 ft | 365 kts | 284° |
| 2026-05-03 23:37 | -25.52177 | 142.14608 | 38180 ft | 365 kts | 284° |
| 2026-05-03 23:38 | -25.51190 | 142.09083 | 38181 ft | 365 kts | 284° |
| 2026-05-03 23:38 | -25.50203 | 142.03572 | 38188 ft | 365 kts | 285° |
| 2026-05-03 23:39 | -25.49213 | 141.98056 | 38185 ft | 365 kts | 285° |
| 2026-05-03 23:39 | -25.48227 | 141.92577 | 38177 ft | 365 kts | 285° |
| 2026-05-03 23:40 | -25.47232 | 141.87059 | 38178 ft | 365 kts | 285° |
| 2026-05-03 23:40 | -25.46398 | 141.82441 | 38179 ft | 365 kts | 285° |
| 2026-05-03 23:41 | -25.45408 | 141.76975 | 38179 ft | 364 kts | 285° |
| 2026-05-03 23:41 | -25.44408 | 141.71465 | 38177 ft | 364 kts | 285° |
| 2026-05-03 23:42 | -25.43409 | 141.65968 | 38179 ft | 364 kts | 285° |
| 2026-05-03 23:42 | -25.42408 | 141.60474 | 38180 ft | 364 kts | 285° |
| 2026-05-03 23:43 | -25.41404 | 141.54980 | 38212 ft | 364 kts | 285° |
| 2026-05-03 23:43 | -25.40400 | 141.49493 | 38189 ft | 364 kts | 285° |
| 2026-05-03 23:44 | -25.39399 | 141.44037 | 38176 ft | 364 kts | 285° |
| 2026-05-03 23:44 | -25.38392 | 141.38560 | 38177 ft | 363 kts | 285° |
| 2026-05-03 23:45 | -25.37385 | 141.33091 | 38188 ft | 363 kts | 285° |
| 2026-05-03 23:45 | -25.36377 | 141.27635 | 38184 ft | 362 kts | 285° |
| 2026-05-03 23:46 | -25.35369 | 141.22182 | 38189 ft | 361 kts | 285° |
| 2026-05-03 23:46 | -25.34360 | 141.16741 | 38190 ft | 361 kts | 285° |
| 2026-05-03 23:47 | -25.33348 | 141.11299 | 38190 ft | 361 kts | 285° |
| 2026-05-03 23:47 | -25.32341 | 141.05895 | 38190 ft | 361 kts | 285° |
| 2026-05-03 23:48 | -25.31325 | 141.00455 | 38194 ft | 361 kts | 285° |
| 2026-05-03 23:48 | -25.30305 | 140.95006 | 38192 ft | 362 kts | 285° |
| 2026-05-03 23:49 | -25.29283 | 140.89554 | 38196 ft | 363 kts | 285° |
| 2026-05-03 23:49 | -25.28256 | 140.84084 | 38192 ft | 363 kts | 285° |
| 2026-05-03 23:50 | -25.27226 | 140.78612 | 38196 ft | 364 kts | 285° |
| 2026-05-03 23:50 | -25.26192 | 140.73134 | 38194 ft | 364 kts | 285° |
| 2026-05-03 23:51 | -25.25157 | 140.67653 | 38197 ft | 365 kts | 285° |
| 2026-05-03 23:51 | -25.24118 | 140.62169 | 38194 ft | 365 kts | 285° |
| 2026-05-03 23:52 | -25.23082 | 140.56709 | 38202 ft | 365 kts | 285° |
| 2026-05-03 23:52 | -25.22038 | 140.51223 | 38201 ft | 365 kts | 285° |
| 2026-05-03 23:53 | -25.20991 | 140.45732 | 38204 ft | 365 kts | 285° |
| 2026-05-03 23:53 | -25.19944 | 140.40250 | 38216 ft | 365 kts | 286° |
| 2026-05-03 23:54 | -25.18894 | 140.34765 | 38202 ft | 365 kts | 286° |
| 2026-05-03 23:54 | -25.17850 | 140.29320 | 38209 ft | 364 kts | 286° |
| 2026-05-03 23:55 | -25.16798 | 140.23849 | 38207 ft | 364 kts | 286° |
| 2026-05-03 23:55 | -25.15746 | 140.18386 | 38206 ft | 363 kts | 286° |
| 2026-05-03 23:56 | -25.14692 | 140.12928 | 38207 ft | 363 kts | 286° |
| 2026-05-03 23:56 | -25.13637 | 140.07475 | 38207 ft | 363 kts | 286° |
| 2026-05-03 23:57 | -25.12580 | 140.02022 | 38209 ft | 363 kts | 286° |
| 2026-05-03 23:57 | -25.11523 | 139.96577 | 38213 ft | 363 kts | 286° |
| 2026-05-03 23:58 | -25.10462 | 139.91127 | 38205 ft | 363 kts | 286° |
| 2026-05-03 23:58 | -25.09400 | 139.85684 | 38213 ft | 363 kts | 286° |
| 2026-05-03 23:59 | -25.08344 | 139.80277 | 38209 ft | 363 kts | 286° |
| 2026-05-03 23:59 | -25.07277 | 139.74833 | 38206 ft | 363 kts | 286° |
| 2026-05-04 00:00 | -25.06210 | 139.69385 | 38209 ft | 363 kts | 286° |
| 2026-05-04 00:00 | -25.05139 | 139.63943 | 38239 ft | 363 kts | 286° |
| 2026-05-04 00:01 | -25.04065 | 139.58494 | 38213 ft | 364 kts | 286° |
| 2026-05-04 00:01 | -25.02989 | 139.53042 | 38210 ft | 363 kts | 286° |
| 2026-05-04 00:02 | -25.01911 | 139.47595 | 38211 ft | 363 kts | 287° |
| 2026-05-04 00:02 | -25.00831 | 139.42147 | 38209 ft | 363 kts | 287° |
| 2026-05-04 00:03 | -24.99758 | 139.36741 | 38211 ft | 363 kts | 287° |
| 2026-05-04 00:03 | -24.98674 | 139.31297 | 38207 ft | 363 kts | 287° |
| 2026-05-04 00:04 | -24.97590 | 139.25861 | 38214 ft | 363 kts | 287° |
| 2026-05-04 00:04 | -24.96504 | 139.20424 | 38212 ft | 363 kts | 287° |
| 2026-05-04 00:05 | -24.95417 | 139.14996 | 38210 ft | 363 kts | 287° |
| 2026-05-04 00:05 | -24.94328 | 139.09568 | 38212 ft | 363 kts | 287° |
| 2026-05-04 00:06 | -24.93235 | 139.04132 | 38207 ft | 363 kts | 287° |
| 2026-05-04 00:06 | -24.92149 | 138.98737 | 38213 ft | 363 kts | 287° |
| 2026-05-04 00:07 | -24.91050 | 138.93295 | 38213 ft | 363 kts | 287° |
| 2026-05-04 00:07 | -24.89949 | 138.87848 | 38211 ft | 364 kts | 287° |
| 2026-05-04 00:08 | -24.88854 | 138.82443 | 38215 ft | 364 kts | 287° |
| 2026-05-04 00:08 | -24.87748 | 138.76995 | 38216 ft | 364 kts | 287° |
| 2026-05-04 00:09 | -24.86639 | 138.71543 | 38218 ft | 365 kts | 287° |
| 2026-05-04 00:09 | -24.85527 | 138.66084 | 38217 ft | 365 kts | 287° |
| 2026-05-04 00:10 | -24.84412 | 138.60623 | 38215 ft | 365 kts | 287° |
| 2026-05-04 00:10 | -24.83295 | 138.55163 | 38220 ft | 366 kts | 287° |
| 2026-05-04 00:11 | -24.82179 | 138.49723 | 38219 ft | 366 kts | 287° |
| 2026-05-04 00:11 | -24.81057 | 138.44257 | 38220 ft | 366 kts | 287° |
| 2026-05-04 00:12 | -24.79932 | 138.38791 | 38220 ft | 366 kts | 287° |
| 2026-05-04 00:12 | -24.78804 | 138.33322 | 38219 ft | 366 kts | 287° |
| 2026-05-04 00:13 | -24.77675 | 138.27854 | 38220 ft | 366 kts | 287° |
| 2026-05-04 00:13 | -24.76541 | 138.22379 | 38220 ft | 367 kts | 287° |
| 2026-05-04 00:14 | -24.75407 | 138.16906 | 38221 ft | 367 kts | 287° |
| 2026-05-04 00:14 | -24.74269 | 138.11431 | 38224 ft | 367 kts | 287° |
| 2026-05-04 00:15 | -24.73137 | 138.05991 | 38227 ft | 367 kts | 287° |
| 2026-05-04 00:15 | -24.71994 | 138.00515 | 38219 ft | 367 kts | 287° |
| 2026-05-04 00:16 | -24.70852 | 137.95047 | 38228 ft | 367 kts | 287° |
| 2026-05-04 00:16 | -24.69706 | 137.89577 | 38227 ft | 367 kts | 287° |
| 2026-05-04 00:17 | -24.68559 | 137.84108 | 38255 ft | 367 kts | 287° |
| 2026-05-04 00:17 | -24.67408 | 137.78632 | 38234 ft | 367 kts | 287° |
| 2026-05-04 00:18 | -24.66265 | 137.73197 | 38233 ft | 367 kts | 287° |
| 2026-05-04 00:18 | -24.65114 | 137.67744 | 38224 ft | 366 kts | 287° |
| 2026-05-04 00:19 | -24.63959 | 137.62295 | 38229 ft | 365 kts | 287° |
| 2026-05-04 00:19 | -24.62801 | 137.56856 | 38223 ft | 365 kts | 287° |
| 2026-05-04 00:20 | -24.61644 | 137.51429 | 38228 ft | 364 kts | 287° |
| 2026-05-04 00:20 | -24.60485 | 137.45999 | 38228 ft | 364 kts | 287° |
| 2026-05-04 00:21 | -24.59334 | 137.40614 | 38228 ft | 364 kts | 287° |
| 2026-05-04 00:21 | -24.58173 | 137.35196 | 38235 ft | 364 kts | 287° |
| 2026-05-04 00:22 | -24.57011 | 137.29781 | 38228 ft | 364 kts | 287° |
| 2026-05-04 00:22 | -24.55847 | 137.24363 | 38225 ft | 364 kts | 287° |
| 2026-05-04 00:23 | -24.54680 | 137.18945 | 38228 ft | 364 kts | 287° |
| 2026-05-04 00:23 | -24.53511 | 137.13529 | 38227 ft | 365 kts | 287° |
| 2026-05-04 00:24 | -24.52339 | 137.08108 | 38237 ft | 365 kts | 287° |
| 2026-05-04 00:24 | -24.51170 | 137.02711 | 38228 ft | 365 kts | 287° |
| 2026-05-04 00:25 | -24.49994 | 136.97289 | 38239 ft | 365 kts | 287° |
| 2026-05-04 00:25 | -24.48815 | 136.91861 | 38239 ft | 365 kts | 287° |
| 2026-05-04 00:26 | -24.47635 | 136.86437 | 38229 ft | 365 kts | 287° |
| 2026-05-04 00:26 | -24.46450 | 136.81010 | 38231 ft | 365 kts | 287° |
| 2026-05-04 00:27 | -24.45934 | 136.76376 | 38241 ft | 371 kts | 277° |
| 2026-05-04 00:27 | -24.46297 | 136.70681 | 38236 ft | 379 kts | 268° |
| 2026-05-04 00:28 | -24.47274 | 136.64987 | 38232 ft | 379 kts | 267° |
| 2026-05-04 00:28 | -24.48277 | 136.59307 | 38275 ft | 378 kts | 267° |
| 2026-05-04 00:29 | -24.49256 | 136.53680 | 38245 ft | 377 kts | 267° |
| 2026-05-04 00:29 | -24.50225 | 136.48032 | 38234 ft | 375 kts | 267° |
| 2026-05-04 00:30 | -24.50545 | 136.46162 | 38236 ft | 375 kts | 267° |
| 2026-05-04 00:31 | -24.53176 | 136.30655 | 38239 ft | 372 kts | 267° |
| 2026-05-04 00:31 | -24.54114 | 136.25104 | 38240 ft | 372 kts | 267° |
| 2026-05-04 00:32 | -24.55056 | 136.19508 | 38237 ft | 372 kts | 267° |
| 2026-05-04 00:32 | -24.55997 | 136.13906 | 38241 ft | 373 kts | 268° |
| 2026-05-04 00:33 | -24.57409 | 136.05486 | 38240 ft | 374 kts | 268° |
| 2026-05-04 00:34 | -24.58348 | 135.99868 | 38239 ft | 374 kts | 268° |
| 2026-05-04 00:34 | -24.59281 | 135.94275 | 38239 ft | 374 kts | 268° |
| 2026-05-04 00:35 | -24.60217 | 135.88647 | 38244 ft | 374 kts | 268° |
| 2026-05-04 00:35 | -24.61152 | 135.83012 | 38240 ft | 375 kts | 268° |
| 2026-05-04 00:36 | -24.62086 | 135.77373 | 38243 ft | 375 kts | 268° |
| 2026-05-04 00:36 | -24.63017 | 135.71736 | 38252 ft | 375 kts | 268° |
| 2026-05-04 00:37 | -24.63947 | 135.66090 | 38248 ft | 375 kts | 268° |
| 2026-05-04 00:37 | -24.64870 | 135.60481 | 38247 ft | 375 kts | 268° |
| 2026-05-04 00:38 | -24.65797 | 135.54828 | 38245 ft | 375 kts | 268° |
| 2026-05-04 00:38 | -24.66720 | 135.49187 | 38251 ft | 375 kts | 268° |
| 2026-05-04 00:39 | -24.67640 | 135.43548 | 38247 ft | 374 kts | 268° |
| 2026-05-04 00:39 | -24.68558 | 135.37911 | 38251 ft | 374 kts | 268° |
| 2026-05-04 00:40 | -24.69472 | 135.32277 | 38282 ft | 374 kts | 268° |
| 2026-05-04 00:40 | -24.70387 | 135.26628 | 38257 ft | 375 kts | 268° |
| 2026-05-04 00:41 | -24.71300 | 135.20977 | 38251 ft | 375 kts | 268° |
| 2026-05-04 00:41 | -24.72211 | 135.15328 | 38251 ft | 375 kts | 268° |
| 2026-05-04 00:42 | -24.73119 | 135.09683 | 38255 ft | 375 kts | 268° |
| 2026-05-04 00:42 | -24.74020 | 135.04063 | 38251 ft | 375 kts | 268° |
| 2026-05-04 00:43 | -24.74924 | 134.98414 | 38271 ft | 375 kts | 268° |
| 2026-05-04 00:43 | -24.75829 | 134.92743 | 38254 ft | 376 kts | 268° |
| 2026-05-04 00:44 | -24.76731 | 134.87076 | 38255 ft | 376 kts | 268° |
| 2026-05-04 00:44 | -24.77631 | 134.81411 | 38249 ft | 376 kts | 268° |
| 2026-05-04 00:45 | -24.78529 | 134.75743 | 38251 ft | 376 kts | 268° |
| 2026-05-04 00:45 | -24.79425 | 134.70075 | 38255 ft | 376 kts | 268° |
| 2026-05-04 00:46 | -24.80320 | 134.64394 | 38257 ft | 376 kts | 268° |
| 2026-05-04 00:46 | -24.81208 | 134.58746 | 38260 ft | 376 kts | 268° |
| 2026-05-04 00:47 | -24.82098 | 134.53065 | 38252 ft | 376 kts | 268° |
| 2026-05-04 00:47 | -24.82839 | 134.48334 | 38253 ft | 376 kts | 268° |
| 2026-05-04 00:48 | -24.83726 | 134.42651 | 38247 ft | 377 kts | 268° |
| 2026-05-04 00:48 | -24.84755 | 134.36035 | 38259 ft | 377 kts | 267° |
| 2026-05-04 00:49 | -24.85497 | 134.31257 | 38256 ft | 378 kts | 267° |
| 2026-05-04 00:49 | -24.86376 | 134.25582 | 38257 ft | 378 kts | 267° |
| 2026-05-04 00:50 | -24.87258 | 134.19869 | 38227 ft | 379 kts | 267° |
| 2026-05-04 00:50 | -24.88141 | 134.14143 | 38249 ft | 378 kts | 267° |
| 2026-05-04 00:51 | -24.89019 | 134.08431 | 38260 ft | 378 kts | 267° |
| 2026-05-04 00:51 | -24.89896 | 134.02708 | 38279 ft | 379 kts | 267° |
| 2026-05-04 00:52 | -24.90770 | 133.96985 | 38265 ft | 379 kts | 267° |
| 2026-05-04 00:52 | -24.91639 | 133.91286 | 38258 ft | 380 kts | 267° |
| 2026-05-04 00:53 | -24.92511 | 133.85553 | 38253 ft | 380 kts | 267° |
| 2026-05-04 00:53 | -24.93383 | 133.79805 | 38266 ft | 380 kts | 267° |
| 2026-05-04 00:54 | -24.94252 | 133.74057 | 38260 ft | 380 kts | 267° |
| 2026-05-04 00:54 | -24.95120 | 133.68302 | 38258 ft | 381 kts | 267° |
| 2026-05-04 00:55 | -24.95987 | 133.62538 | 38281 ft | 381 kts | 267° |
| 2026-05-04 00:55 | -24.96853 | 133.56767 | 38264 ft | 382 kts | 267° |
| 2026-05-04 00:56 | -24.97718 | 133.50986 | 38259 ft | 382 kts | 267° |
| 2026-05-04 00:56 | -24.98581 | 133.45202 | 38260 ft | 383 kts | 267° |
| 2026-05-04 00:57 | -24.99437 | 133.39447 | 38267 ft | 383 kts | 266° |
| 2026-05-04 00:57 | -25.00299 | 133.33641 | 38266 ft | 384 kts | 266° |
| 2026-05-04 00:58 | -25.01162 | 133.27807 | 38260 ft | 385 kts | 266° |
| 2026-05-04 00:58 | -25.02023 | 133.21974 | 38271 ft | 386 kts | 266° |
| 2026-05-04 00:59 | -25.02883 | 133.16133 | 38261 ft | 386 kts | 266° |
| 2026-05-04 00:59 | -25.03737 | 133.10313 | 38254 ft | 386 kts | 266° |
| 2026-05-04 01:00 | -25.04592 | 133.04475 | 38257 ft | 385 kts | 266° |
| 2026-05-04 01:00 | -25.05443 | 132.98643 | 38267 ft | 385 kts | 266° |
| 2026-05-04 01:01 | -25.06292 | 132.92802 | 38263 ft | 386 kts | 266° |
| 2026-05-04 01:01 | -25.07142 | 132.86947 | 38261 ft | 386 kts | 266° |
| 2026-05-04 01:02 | -25.07988 | 132.81100 | 38261 ft | 386 kts | 266° |
| 2026-05-04 01:02 | -25.08834 | 132.75238 | 38260 ft | 387 kts | 266° |
| 2026-05-04 01:03 | -25.09672 | 132.69411 | 38260 ft | 387 kts | 266° |
| 2026-05-04 01:03 | -25.10513 | 132.63550 | 38260 ft | 386 kts | 266° |
| 2026-05-04 01:04 | -25.11352 | 132.57681 | 38270 ft | 387 kts | 266° |
| 2026-05-04 01:04 | -25.12190 | 132.51803 | 37739 ft | 394 kts | 266° |
| 2026-05-04 01:04 | -25.12614 | 132.48826 | 37112 ft | 393 kts | 265° |
| 2026-05-04 01:05 | -25.13029 | 132.45851 | 36486 ft | 390 kts | 267° |
| 2026-05-04 01:05 | -25.13202 | 132.42877 | 35780 ft | 388 kts | 274° |
| 2026-05-04 01:05 | -25.13010 | 132.39903 | 34943 ft | 391 kts | 277° |
| 2026-05-04 01:05 | -25.12740 | 132.36903 | 34415 ft | 389 kts | 277° |
| 2026-05-04 01:06 | -25.12473 | 132.33946 | 34207 ft | 390 kts | 277° |
| 2026-05-04 01:06 | -25.12200 | 132.30913 | 33967 ft | 404 kts | 277° |
| 2026-05-04 01:06 | -25.11922 | 132.27787 | 33711 ft | 413 kts | 277° |
| 2026-05-04 01:06 | -25.11644 | 132.24614 | 33427 ft | 416 kts | 277° |
| 2026-05-04 01:07 | -25.11371 | 132.21459 | 33152 ft | 410 kts | 277° |
| 2026-05-04 01:07 | -25.11103 | 132.18345 | 32873 ft | 406 kts | 277° |
| 2026-05-04 01:07 | -25.10833 | 132.15229 | 32043 ft | 408 kts | 277° |
| 2026-05-04 01:07 | -25.10566 | 132.12135 | 31420 ft | 404 kts | 276° |
| 2026-05-04 01:08 | -25.10300 | 132.09067 | 30856 ft | 400 kts | 276° |
| 2026-05-04 01:08 | -25.10035 | 132.06022 | 30222 ft | 398 kts | 276° |
| 2026-05-04 01:08 | -25.09774 | 132.03036 | 29547 ft | 394 kts | 276° |
| 2026-05-04 01:08 | -25.09512 | 132.00041 | 28890 ft | 389 kts | 276° |
| 2026-05-04 01:09 | -25.09252 | 131.97082 | 28272 ft | 385 kts | 276° |
| 2026-05-04 01:09 | -25.08995 | 131.94153 | 27668 ft | 382 kts | 276° |
| 2026-05-04 01:09 | -25.08738 | 131.91241 | 27064 ft | 381 kts | 276° |
| 2026-05-04 01:09 | -25.08481 | 131.88334 | 26466 ft | 380 kts | 276° |
| 2026-05-04 01:10 | -25.08225 | 131.85437 | 25868 ft | 378 kts | 275° |
| 2026-05-04 01:10 | -25.07969 | 131.82561 | 25264 ft | 375 kts | 275° |
| 2026-05-04 01:10 | -25.07715 | 131.79701 | 24652 ft | 373 kts | 275° |
| 2026-05-04 01:10 | -25.07462 | 131.76859 | 24050 ft | 371 kts | 275° |
| 2026-05-04 01:11 | -25.07209 | 131.74031 | 23365 ft | 370 kts | 275° |
| 2026-05-04 01:11 | -25.06958 | 131.71222 | 22712 ft | 366 kts | 275° |
| 2026-05-04 01:11 | -25.06708 | 131.68441 | 22105 ft | 362 kts | 275° |
| 2026-05-04 01:11 | -25.06461 | 131.65689 | 21510 ft | 359 kts | 275° |
| 2026-05-04 01:12 | -25.06216 | 131.62964 | 20928 ft | 356 kts | 275° |
| 2026-05-04 01:12 | -25.05971 | 131.60257 | 20352 ft | 353 kts | 275° |
| 2026-05-04 01:12 | -25.05728 | 131.57569 | 19777 ft | 351 kts | 275° |
| 2026-05-04 01:12 | -25.05489 | 131.54932 | 19193 ft | 350 kts | 275° |
| 2026-05-04 01:13 | -25.05248 | 131.52271 | 18609 ft | 348 kts | 275° |
| 2026-05-04 01:13 | -25.05006 | 131.49618 | 17952 ft | 347 kts | 275° |
| 2026-05-04 01:13 | -25.04766 | 131.46976 | 17344 ft | 344 kts | 275° |
| 2026-05-04 01:13 | -25.04527 | 131.44358 | 16755 ft | 342 kts | 275° |
| 2026-05-04 01:14 | -25.04289 | 131.41759 | 16174 ft | 339 kts | 275° |
| 2026-05-04 01:14 | -25.04052 | 131.39176 | 15598 ft | 337 kts | 275° |
| 2026-05-04 01:14 | -25.03816 | 131.36603 | 14997 ft | 337 kts | 275° |
| 2026-05-04 01:14 | -25.03580 | 131.34039 | 14407 ft | 336 kts | 275° |
| 2026-05-04 01:15 | -25.03344 | 131.31479 | 13779 ft | 335 kts | 275° |
| 2026-05-04 01:15 | -25.03108 | 131.28928 | 13174 ft | 333 kts | 275° |
| 2026-05-04 01:15 | -25.02874 | 131.26395 | 12575 ft | 331 kts | 275° |
| 2026-05-04 01:15 | -25.02641 | 131.23885 | 11989 ft | 328 kts | 276° |
| 2026-05-04 01:16 | -25.02409 | 131.21390 | 11403 ft | 326 kts | 276° |
| 2026-05-04 01:16 | -25.02179 | 131.18913 | 10805 ft | 324 kts | 276° |
| 2026-05-04 01:16 | -25.01954 | 131.16495 | 10663 ft | 308 kts | 276° |
| 2026-05-04 01:16 | -25.01742 | 131.14226 | 10656 ft | 288 kts | 276° |
| 2026-05-04 01:17 | -25.01542 | 131.12095 | 10648 ft | 271 kts | 276° |
| 2026-05-04 01:17 | -25.01354 | 131.10086 | 10393 ft | 265 kts | 276° |
| 2026-05-04 01:17 | -25.01165 | 131.08071 | 10061 ft | 263 kts | 276° |
| 2026-05-04 01:17 | -25.00977 | 131.06071 | 9650 ft | 262 kts | 276° |
| 2026-05-04 01:18 | -25.00788 | 131.04068 | 9218 ft | 262 kts | 276° |
| 2026-05-04 01:18 | -25.00601 | 131.02073 | 8813 ft | 262 kts | 276° |
| 2026-05-04 01:18 | -25.00412 | 131.00078 | 8425 ft | 261 kts | 277° |
| 2026-05-04 01:18 | -25.00224 | 130.98090 | 8044 ft | 260 kts | 277° |
| 2026-05-04 01:19 | -25.00037 | 130.96102 | 7675 ft | 260 kts | 277° |
| 2026-05-04 01:19 | -24.99851 | 130.94136 | 7244 ft | 256 kts | 277° |
| 2026-05-04 01:19 | -24.99664 | 130.92172 | 6782 ft | 252 kts | 277° |
| 2026-05-04 01:19 | -24.99486 | 130.90290 | 6458 ft | 247 kts | 277° |
| 2026-05-04 01:20 | -24.99305 | 130.88401 | 6008 ft | 253 kts | 277° |
| 2026-05-04 01:20 | -24.99426 | 130.86493 | 5546 ft | 250 kts | 247° |
| 2026-05-04 01:20 | -25.00377 | 130.84995 | 5467 ft | 233 kts | 217° |
| 2026-05-04 01:20 | -25.01705 | 130.84115 | 5438 ft | 215 kts | 197° |
| 2026-05-04 01:21 | -25.03060 | 130.83573 | 5453 ft | 199 kts | 196° |
| 2026-05-04 01:21 | -25.04342 | 130.83080 | 5429 ft | 193 kts | 196° |
| 2026-05-04 01:21 | -25.05598 | 130.82603 | 5454 ft | 188 kts | 195° |
| 2026-05-04 01:21 | -25.06823 | 130.82609 | 5376 ft | 169 kts | 148° |
| 2026-05-04 01:22 | -25.07651 | 130.83415 | 5334 ft | 160 kts | 131° |
| 2026-05-04 01:22 | -25.08429 | 130.84288 | 5139 ft | 157 kts | 129° |
| 2026-05-04 01:22 | -25.09157 | 130.85184 | 4924 ft | 156 kts | 127° |
| 2026-05-04 01:22 | -25.09859 | 130.86087 | 4717 ft | 150 kts | 127° |
| 2026-05-04 01:23 | -25.10506 | 130.86937 | 4517 ft | 140 kts | 127° |
| 2026-05-04 01:23 | -25.11116 | 130.87745 | 4334 ft | 135 kts | 128° |
| 2026-05-04 01:23 | -25.11710 | 130.88539 | 4160 ft | 138 kts | 130° |
| 2026-05-04 01:23 | -25.12310 | 130.89337 | 3989 ft | 131 kts | 129° |
| 2026-05-04 01:24 | -25.12880 | 130.90098 | 3809 ft | 128 kts | 129° |
| 2026-05-04 01:24 | -25.13438 | 130.90842 | 3659 ft | 126 kts | 130° |
| 2026-05-04 01:24 | -25.13992 | 130.91582 | 3488 ft | 123 kts | 131° |
| 2026-05-04 01:24 | -25.14519 | 130.92304 | 3232 ft | 118 kts | 130° |
| 2026-05-04 01:25 | -25.15041 | 130.93023 | 2882 ft | 124 kts | 131° |
| 2026-05-04 01:25 | -25.15597 | 130.93756 | 2526 ft | 123 kts | 133° |
| 2026-05-04 01:25 | -25.16130 | 130.94466 | 2246 ft | 120 kts | 133° |
| 2026-05-04 01:25 | -25.16677 | 130.95175 | 2060 ft | 121 kts | 133° |
| 2026-05-04 01:26 | -25.17215 | 130.95889 | 1867 ft | 124 kts | 132° |
| 2026-05-04 01:26 | -25.17772 | 130.96625 | 1662 ft | 126 kts | 131° |
| 2026-05-04 01:26 | -25.18291 | 130.97315 | 1636 ft | 98 kts | 130° |
| 2026-05-04 01:26 | -25.18616 | 130.97749 | 1637 ft | 35 kts | 130° |
| 2026-05-04 01:27 | -25.18717 | 130.97882 | 1633 ft | 12 kts | 128° |
| 2026-05-04 01:27 | -25.18776 | 130.97874 | 1633 ft | 10 kts | 217° |
| 2026-05-04 01:27 | -25.18830 | 130.97827 | 1633 ft | 10 kts | 220° |
| 2026-05-04 01:27 | -25.18882 | 130.97779 | 1633 ft | 10 kts | 218° |
| 2026-05-04 01:28 | -25.18939 | 130.97729 | 1630 ft | 11 kts | 211° |
| 2026-05-04 01:28 | -25.19000 | 130.97760 | 1630 ft | 10 kts | 128° |
| 2026-05-04 01:28 | -25.19032 | 130.97778 | 1635 ft | 5 kts | 202° |
| 2026-05-04 01:28 | -25.19039 | 130.97756 | 1629 ft | 2 kts | 266° |
| 2026-05-04 01:29 | -25.19040 | 130.97733 | 1629 ft | 1 kts | 265° |
| 2026-05-04 01:29 | -25.19040 | 130.97732 | 1629 ft | 0 kts | 265° |